Vlagtwedde, Netherlands
Current Conditions -  °F | °C
As of 11:55 AM on Monday 20 Oct 2014 (Local Time) from EHGG Reporting Station
Broken Clouds Broken Clouds  
Wind Chill: 59°   Ceiling: 2500
Heat Index: 59°   Visibility: 6mi
Dew Point: 52°   Wind: 16mph
Humidity: 77%   Direction: 270°W
Pressure: 29.91"   Gusts: NA
Location:  53.03°N, 7.11°E
Report Text: EHGG 200955Z AUTO 27014KT 240V300 9999 SCT022 BKN025 BKN04015/11 Q1013 NOSIG
Loading
Personal Weather Stations






























Interactive Weather Map
Tropical Storm Tracking
New forecast layout! Learn more

10-Day Weather Forecast

Advertisements
Track Severe Weather on mobile